createdAt,value
2019-04-10T00:03:44.194Z,100766.23
2019-04-10T00:06:32.008Z,100773.20
2019-04-10T00:09:21.150Z,100772.96
2019-04-10T00:12:09.499Z,100763.41
2019-04-10T00:14:39.084Z,100771.39
2019-04-10T00:17:07.480Z,100760.77
2019-04-10T00:19:35.980Z,100762.63
2019-04-10T00:22:04.363Z,100764.38
2019-04-10T00:27:24.299Z,100767.38
2019-04-10T00:29:52.725Z,100766.89
2019-04-10T00:32:21.626Z,100771.30
2019-04-10T00:34:51.860Z,100761.56
2019-04-10T00:37:26.727Z,100765.68
2019-04-10T00:39:50.839Z,100759.28
2019-04-10T00:42:19.172Z,100767.47
2019-04-10T00:44:48.063Z,100762.59
2019-04-10T00:47:17.018Z,100761.77
2019-04-10T00:49:46.129Z,100760.28
2019-04-10T00:52:14.972Z,100766.53
2019-04-10T00:54:43.515Z,100762.05
2019-04-10T00:57:12.827Z,100762.41
2019-04-10T00:59:42.151Z,100761.56
2019-04-10T01:02:10.533Z,100764.14
2019-04-10T01:04:38.943Z,100762.16
2019-04-10T01:07:07.340Z,100760.02
2019-04-10T01:09:35.791Z,100755.98
2019-04-10T01:12:04.183Z,100750.67
2019-04-10T01:14:32.593Z,100740.11
2019-04-10T01:17:02.067Z,100745.52
2019-04-10T01:19:30.600Z,100742.70
2019-04-10T01:21:58.999Z,100750.06
2019-04-10T01:24:27.941Z,100751.88
2019-04-10T01:26:56.376Z,100747.24
2019-04-10T01:29:25.141Z,100748.16
2019-04-10T01:31:53.553Z,100746.27
2019-04-10T01:34:21.955Z,100746.45
2019-04-10T01:36:50.354Z,100749.30
2019-04-10T01:39:20.635Z,100749.75
2019-04-10T01:41:50.096Z,100752.03
2019-04-10T01:44:18.503Z,100754.94
2019-04-10T01:46:46.970Z,100753.38
2019-04-10T01:49:15.681Z,100759.89
2019-04-10T01:51:44.044Z,100757.97
2019-04-10T01:54:13.061Z,100756.83
2019-04-10T01:56:41.888Z,100755.08
2019-04-10T01:59:10.474Z,100748.89
2019-04-10T02:01:49.024Z,100748.67
2019-04-10T02:04:18.403Z,100739.09
2019-04-10T02:06:46.796Z,100744.03
2019-04-10T02:09:15.205Z,100744.62
2019-04-10T02:11:43.596Z,100758.91
2019-04-10T02:14:12.162Z,100761.90
2019-04-10T02:16:41.133Z,100758.39
2019-04-10T02:19:10.103Z,100758.92
2019-04-10T02:21:38.519Z,100758.80
2019-04-10T02:24:07.072Z,100756.70
2019-04-10T02:26:35.963Z,100755.47
2019-04-10T02:29:04.368Z,100757.09
2019-04-10T02:31:34.294Z,100758.16
2019-04-10T02:34:04.780Z,100752.34
2019-04-10T02:36:34.465Z,100758.05
2019-04-10T02:39:15.212Z,100757.59
2019-04-10T02:41:36.306Z,100763.40
2019-04-10T02:44:05.076Z,100763.41
2019-04-10T02:46:33.525Z,100759.84
2019-04-10T02:49:03.771Z,100757.02
2019-04-10T02:51:32.555Z,100758.10
2019-04-10T02:54:02.375Z,100756.41
2019-04-10T02:56:32.632Z,100757.56
2019-04-10T02:59:02.832Z,100756.96
2019-04-10T03:01:31.647Z,100758.78
2019-04-10T03:04:01.303Z,100763.61
2019-04-10T03:06:31.164Z,100756.49
2019-04-10T03:09:14.744Z,100756.98
2019-04-10T03:11:31.266Z,100754.30
2019-04-10T03:14:01.369Z,100756.43
2019-04-10T03:16:29.819Z,100755.53
2019-04-10T03:18:58.211Z,100753.38
2019-04-10T03:21:27.023Z,100750.91
2019-04-10T03:23:55.981Z,100755.21
2019-04-10T03:26:24.373Z,100757.20
2019-04-10T03:28:53.538Z,100762.75
2019-04-10T03:31:23.032Z,100764.47
2019-04-10T03:33:55.351Z,100764.84
2019-04-10T03:36:23.904Z,100766.52
2019-04-10T03:38:58.750Z,100759.96
2019-04-10T03:41:22.422Z,100763.22
2019-04-10T03:43:50.819Z,100769.17
2019-04-10T03:46:19.515Z,100763.08
2019-04-10T03:48:47.966Z,100765.00
2019-04-10T03:51:16.601Z,100766.98
2019-04-10T03:53:44.940Z,100762.84
2019-04-10T03:56:13.811Z,100766.13
2019-04-10T03:58:42.255Z,100762.75
2019-04-10T04:01:11.005Z,100761.02
2019-04-10T04:03:40.481Z,100763.30
2019-04-10T04:06:08.999Z,100766.93
2019-04-10T04:08:37.510Z,100760.18
2019-04-10T04:11:05.856Z,100764.84
2019-04-10T04:13:35.452Z,100767.03
2019-04-10T04:16:03.849Z,100762.07
2019-04-10T04:18:33.257Z,100762.31
2019-04-10T04:21:01.650Z,100767.19
2019-04-10T04:23:30.024Z,100772.63
2019-04-10T04:25:58.943Z,100775.70
2019-04-10T04:28:27.692Z,100775.91
2019-04-10T04:30:56.780Z,100779.98
2019-04-10T04:33:25.280Z,100775.62
2019-04-10T04:35:53.694Z,100781.65
2019-04-10T04:38:22.084Z,100780.75
2019-04-10T04:40:51.461Z,100782.11
2019-04-10T04:43:21.705Z,100783.11
2019-04-10T04:45:51.586Z,100790.69
2019-04-10T04:48:20.019Z,100794.81
2019-04-10T04:50:48.424Z,100796.83
2019-04-10T04:53:16.816Z,100799.41
2019-04-10T04:55:45.293Z,100791.61
2019-04-10T04:58:13.845Z,100796.03
2019-04-10T05:00:42.169Z,100788.70
2019-04-10T05:03:10.574Z,100799.80
2019-04-10T05:05:39.154Z,100799.40
2019-04-10T05:08:08.467Z,100800.80
2019-04-10T05:10:37.817Z,100799.98
2019-04-10T05:13:06.212Z,100808.27
2019-04-10T05:15:35.268Z,100805.80
2019-04-10T05:18:04.072Z,100811.69
2019-04-10T05:20:43.188Z,100812.30
2019-04-10T05:23:02.574Z,100820.38
2019-04-10T05:25:31.599Z,100815.77
2019-04-10T05:27:59.993Z,100816.92
2019-04-10T05:30:29.205Z,100818.75
2019-04-10T05:32:57.774Z,100824.90
2019-04-10T05:35:26.196Z,100822.44
2019-04-10T05:37:54.599Z,100834.62
2019-04-10T05:40:23.878Z,100844.06
2019-04-10T05:42:53.269Z,100842.61
2019-04-10T05:45:21.766Z,100842.83
2019-04-10T05:47:50.733Z,100848.52
2019-04-10T05:50:19.453Z,100845.23
2019-04-10T05:52:47.937Z,100846.23
2019-04-10T05:55:16.328Z,100856.43
2019-04-10T05:57:44.874Z,100855.36
2019-04-10T06:00:15.019Z,100858.16
2019-04-10T06:02:43.870Z,100859.80
2019-04-10T06:05:12.572Z,100870.61
2019-04-10T06:07:41.351Z,100864.66
2019-04-10T06:10:10.769Z,100868.23
2019-04-10T06:12:39.273Z,100871.64
2019-04-10T06:15:08.116Z,100874.53
2019-04-10T06:17:36.519Z,100872.17
2019-04-10T06:20:07.621Z,100876.66
2019-04-10T06:22:36.897Z,100877.19
2019-04-10T06:25:28.964Z,100883.27
2019-04-10T06:27:58.986Z,100880.67
2019-04-10T06:30:28.443Z,100887.89
2019-04-10T06:33:16.098Z,100885.92
2019-04-10T06:35:44.738Z,100889.41
2019-04-10T06:38:34.985Z,100886.45
2019-04-10T06:41:04.135Z,100891.60
2019-04-10T06:43:34.005Z,100883.66
2019-04-10T06:46:22.248Z,100898.41
2019-04-10T06:48:52.054Z,100900.52
2019-04-10T06:51:21.907Z,100906.92
2019-04-10T06:54:00.100Z,100895.17
2019-04-10T06:56:39.549Z,100894.98
2019-04-10T06:59:28.300Z,100896.31
2019-04-10T07:05:07.292Z,100900.44
2019-04-10T07:07:46.612Z,100905.92
2019-04-10T07:10:52.039Z,100903.66
2019-04-10T07:13:14.179Z,100909.32
2019-04-10T07:18:50.485Z,100904.79
2019-04-10T07:21:20.123Z,100906.02
2019-04-10T07:23:49.392Z,100909.42
2019-04-10T07:26:41.651Z,100915.42
2019-04-10T07:29:07.164Z,100912.56
2019-04-10T07:31:37.777Z,100920.28
2019-04-10T07:34:46.654Z,100923.17
2019-04-10T07:37:18.471Z,100921.91
2019-04-10T07:39:46.761Z,100920.77
2019-04-10T07:45:43.338Z,100923.45
2019-04-10T07:48:12.779Z,100921.67
2019-04-10T07:50:44.470Z,100929.17
2019-04-10T07:53:12.773Z,100927.08
2019-04-10T07:55:54.741Z,100933.70
2019-04-10T07:58:31.498Z,100928.63
2019-04-10T08:01:00.888Z,100933.19
2019-04-10T08:03:31.147Z,100923.69
2019-04-10T08:09:06.712Z,100931.84
2019-04-10T08:14:42.051Z,100929.15
2019-04-10T08:22:33.154Z,100944.09
2019-04-10T08:25:20.676Z,100943.50
2019-04-10T08:27:50.072Z,100943.39
2019-04-10T08:30:59.117Z,100945.84
2019-04-10T08:33:28.090Z,100945.80
2019-04-10T08:38:32.286Z,100950.25
2019-04-10T08:41:01.379Z,100949.10
2019-04-10T08:43:50.192Z,100949.63
2019-04-10T08:46:19.812Z,100946.22
2019-04-10T08:48:49.793Z,100946.50
2019-04-10T08:51:39.448Z,100955.34
2019-04-10T08:59:16.845Z,100941.14
2019-04-10T09:02:04.495Z,100941.13
2019-04-10T09:04:33.638Z,100939.89
2019-04-10T09:07:22.236Z,100941.50
2019-04-10T09:09:50.627Z,100941.16
2019-04-10T09:12:38.933Z,100942.47
2019-04-10T09:18:11.255Z,100938.92
2019-04-10T09:20:40.571Z,100939.02
2019-04-10T09:23:39.010Z,100940.82
2019-04-10T09:26:18.387Z,100937.70
2019-04-10T09:29:06.713Z,100929.86
2019-04-10T09:31:36.164Z,100940.23
2019-04-10T09:34:46.643Z,100933.21
2019-04-10T09:37:34.487Z,100928.91
2019-04-10T09:40:44.702Z,100931.00
2019-04-10T09:43:33.874Z,100922.33
2019-04-10T09:46:04.189Z,100917.41
2019-04-10T09:48:52.369Z,100916.38
2019-04-10T09:51:21.493Z,100920.84
2019-04-10T09:53:51.152Z,100925.81
2019-04-10T09:56:40.145Z,100923.39
2019-04-10T09:59:35.578Z,100926.34
2019-04-10T10:01:58.370Z,100929.92
2019-04-10T10:04:29.131Z,100917.12
2019-04-10T10:06:58.040Z,100922.83
2019-04-10T10:09:45.563Z,100924.95
2019-04-10T10:12:13.954Z,100937.05
2019-04-10T10:14:42.377Z,100926.78
2019-04-10T10:17:10.761Z,100927.02
2019-04-10T10:19:39.628Z,100924.72
2019-04-10T10:22:09.423Z,100924.94
2019-04-10T10:24:59.378Z,100917.30
2019-04-10T10:27:28.669Z,100922.48
2019-04-10T10:30:17.546Z,100929.55
2019-04-10T10:35:49.609Z,100920.75
2019-04-10T10:38:19.334Z,100914.06
2019-04-10T10:41:06.985Z,100915.11
2019-04-10T10:43:36.281Z,100911.81
2019-04-10T10:46:25.169Z,100910.75
2019-04-10T10:51:41.064Z,100903.91
2019-04-10T10:54:10.502Z,100905.38
2019-04-10T10:56:39.597Z,100902.23
2019-04-10T10:59:27.358Z,100905.36
2019-04-10T11:01:55.997Z,100903.51
2019-04-10T11:04:25.920Z,100904.66
2019-04-10T11:06:59.987Z,100898.27
2019-04-10T11:12:12.217Z,100901.68
2019-04-10T11:15:02.249Z,100900.08
2019-04-10T11:23:20.271Z,100901.14
2019-04-10T11:26:08.436Z,100902.27
2019-04-10T11:28:39.296Z,100902.25
2019-04-10T11:31:27.404Z,100894.11
2019-04-10T11:33:56.791Z,100907.33
2019-04-10T11:36:26.112Z,100899.76
2019-04-10T11:42:04.079Z,100891.20
2019-04-10T11:45:14.415Z,100897.27
2019-04-10T11:47:42.812Z,100895.27
2019-04-10T11:50:53.456Z,100900.06
2019-04-10T11:54:02.221Z,100900.91
2019-04-10T11:56:33.767Z,100901.86
2019-04-10T11:59:22.061Z,100898.42
2019-04-10T12:01:56.139Z,100908.00
2019-04-10T12:04:20.941Z,100900.31
2019-04-10T12:07:09.777Z,100907.50
2019-04-10T12:12:09.072Z,100895.16
2019-04-10T12:14:57.964Z,100898.02
2019-04-10T12:17:26.362Z,100896.93
2019-04-10T12:26:17.876Z,100895.08
2019-04-10T12:28:46.983Z,100904.25
2019-04-10T12:31:34.733Z,100895.22
2019-04-10T12:34:22.495Z,100883.80
2019-04-10T12:37:30.819Z,100887.55
2019-04-10T12:40:19.446Z,100895.44
2019-04-10T12:46:02.432Z,100896.34
2019-04-10T12:48:30.839Z,100896.61
2019-04-10T12:51:19.350Z,100899.33
2019-04-10T12:54:01.250Z,100901.71
2019-04-10T12:59:05.139Z,100905.63
2019-04-10T13:01:53.944Z,100910.70
2019-04-10T13:07:11.379Z,100901.59
2019-04-10T13:09:40.491Z,100909.91
2019-04-10T13:12:29.211Z,100902.02
2019-04-10T13:14:59.126Z,100900.88
2019-04-10T13:17:47.636Z,100896.38
2019-04-10T13:20:55.944Z,100893.84
2019-04-10T13:23:24.640Z,100896.34
2019-04-10T13:25:59.799Z,100892.62
2019-04-10T13:28:25.534Z,100888.26
2019-04-10T13:30:56.565Z,100882.19
2019-04-10T13:33:24.873Z,100885.05
2019-04-10T13:36:13.408Z,100886.61
2019-04-10T13:38:42.757Z,100889.48
2019-04-10T13:41:30.362Z,100887.91
2019-04-10T13:43:59.026Z,100888.75
2019-04-10T13:46:49.072Z,100887.24
2019-04-10T13:49:19.895Z,100881.72
2019-04-10T13:51:50.017Z,100892.69
2019-04-10T13:54:38.897Z,100885.97
2019-04-10T13:57:08.361Z,100880.15
2019-04-10T13:59:37.306Z,100882.20
2019-04-10T14:02:07.293Z,100880.17
2019-04-10T14:04:35.705Z,100879.20
2019-04-10T14:07:04.783Z,100881.27
2019-04-10T14:09:52.645Z,100880.47
2019-04-10T14:12:21.010Z,100883.81
2019-04-10T14:14:49.418Z,100886.64
2019-04-10T14:17:17.813Z,100882.47
2019-04-10T14:22:21.790Z,100879.81
2019-04-10T14:24:52.123Z,100887.81
2019-04-10T14:33:44.854Z,100882.80
2019-04-10T14:36:13.879Z,100890.13
2019-04-10T14:39:11.920Z,100893.12
2019-04-10T14:41:33.747Z,100885.45
2019-04-10T14:52:05.628Z,100885.34
2019-04-10T14:54:34.036Z,100895.08
2019-04-10T14:57:23.065Z,100888.97
2019-04-10T15:00:30.749Z,100884.70
2019-04-10T15:03:18.388Z,100881.02
2019-04-10T15:06:06.956Z,100895.27
2019-04-10T15:08:55.620Z,100892.16
2019-04-10T15:11:24.741Z,100899.48
2019-04-10T15:14:13.269Z,100897.28
2019-04-10T15:17:04.459Z,100901.10
2019-04-10T15:19:32.205Z,100906.77
2019-04-10T15:22:20.235Z,100905.73
2019-04-10T15:24:49.633Z,100900.66
2019-04-10T15:27:37.879Z,100902.13
2019-04-10T15:30:46.626Z,100912.39
2019-04-10T15:33:35.817Z,100912.08
2019-04-10T15:36:04.224Z,100909.74
2019-04-10T15:38:52.726Z,100905.30
2019-04-10T15:41:41.333Z,100908.71
2019-04-10T15:44:11.989Z,100909.00
2019-04-10T15:46:41.527Z,100906.45
2019-04-10T15:49:11.487Z,100912.12
2019-04-10T15:51:39.888Z,100911.66
2019-04-10T15:54:09.647Z,100905.94
2019-04-10T15:56:38.657Z,100910.89
2019-04-10T15:59:26.184Z,100911.98
2019-04-10T16:02:13.710Z,100911.19
2019-04-10T16:07:36.214Z,100916.19
2019-04-10T16:10:43.593Z,100920.84
2019-04-10T16:19:14.630Z,100924.17
2019-04-10T16:22:02.693Z,100923.22
2019-04-10T16:24:31.207Z,100920.09
2019-04-10T16:27:18.647Z,100925.13
2019-04-10T16:29:47.053Z,100923.52
2019-04-10T16:32:15.455Z,100927.67
2019-04-10T16:35:03.234Z,100926.62
2019-04-10T16:37:33.576Z,100931.83
2019-04-10T16:40:22.742Z,100926.33
2019-04-10T16:43:10.337Z,100927.69
2019-04-10T16:45:57.994Z,100938.55
2019-04-10T16:48:26.505Z,100937.97
2019-04-10T16:50:56.534Z,100933.38
2019-04-10T16:53:45.431Z,100936.16
2019-04-10T16:56:14.321Z,100935.98
2019-04-10T16:59:02.546Z,100935.47
2019-04-10T17:01:33.005Z,100938.91
2019-04-10T17:04:01.368Z,100933.37
2019-04-10T17:06:30.349Z,100941.95
2019-04-10T17:08:58.757Z,100944.00
2019-04-10T17:11:27.197Z,100946.23
2019-04-10T17:14:15.193Z,100943.20
2019-04-10T17:16:43.987Z,100951.24
2019-04-10T17:19:13.933Z,100946.44
2019-04-10T17:21:44.608Z,100949.02
2019-04-10T17:27:01.616Z,100950.84
2019-04-10T17:29:51.539Z,100956.13
2019-04-10T17:32:21.410Z,100951.87
2019-04-10T17:38:18.527Z,100959.86
2019-04-10T17:41:07.165Z,100961.18
2019-04-10T17:43:55.651Z,100970.02
2019-04-10T17:46:43.664Z,100974.60
2019-04-10T17:49:13.382Z,100979.17
2019-04-10T17:52:03.307Z,100976.41
2019-04-10T17:54:31.485Z,100982.00
2019-04-10T17:57:02.448Z,100977.11
2019-04-10T17:59:32.341Z,100982.22
2019-04-10T18:02:21.192Z,100981.20
2019-04-10T18:04:50.375Z,100986.09
2019-04-10T18:07:19.750Z,100986.20
2019-04-10T18:09:48.582Z,100994.47
2019-04-10T18:12:19.397Z,100997.26
2019-04-10T18:17:35.883Z,101005.22
2019-04-10T18:20:44.488Z,101008.97
2019-04-10T18:23:32.004Z,101014.84
2019-04-10T18:26:00.494Z,101017.44
2019-04-10T18:29:27.409Z,101023.00
2019-04-10T18:31:57.926Z,101024.35
2019-04-10T18:34:27.030Z,101030.88
2019-04-10T18:37:20.655Z,101040.04
2019-04-10T18:39:46.453Z,101038.03
2019-04-10T18:42:17.308Z,101045.80
2019-04-10T18:47:36.436Z,101051.58
2019-04-10T18:53:13.106Z,101058.66
2019-04-10T18:56:01.374Z,101060.16
2019-04-10T18:58:50.651Z,101067.00
2019-04-10T19:01:39.054Z,101067.34
2019-04-10T19:04:27.450Z,101074.38
2019-04-10T19:07:15.370Z,101074.00
2019-04-10T19:10:04.317Z,101078.34
2019-04-10T19:12:33.471Z,101084.70
2019-04-10T19:15:21.121Z,101089.62
2019-04-10T19:17:49.529Z,101092.76
2019-04-10T19:20:37.173Z,101089.50
2019-04-10T19:25:41.115Z,101097.96
2019-04-10T19:28:35.053Z,101097.42
2019-04-10T19:31:20.008Z,101104.27
2019-04-10T19:34:07.343Z,101103.84
2019-04-10T19:36:36.219Z,101106.60
2019-04-10T19:39:46.666Z,101110.84
2019-04-10T19:42:35.649Z,101115.65
2019-04-10T19:45:45.015Z,101113.24
2019-04-10T19:50:49.894Z,101112.25
2019-04-10T19:55:53.917Z,101121.41
2019-04-10T19:58:38.521Z,101121.64
2019-04-10T20:01:12.798Z,101119.28
2019-04-10T20:03:41.194Z,101115.50
2019-04-10T20:06:09.603Z,101121.66
2019-04-10T20:11:12.886Z,101123.55
2019-04-10T20:16:35.375Z,101126.98
2019-04-10T20:21:56.983Z,101130.14
2019-04-10T20:24:25.381Z,101132.70
2019-04-10T20:29:28.857Z,101127.63
2019-04-10T20:32:17.650Z,101139.01
2019-04-10T20:37:34.633Z,101147.58
2019-04-10T20:43:11.108Z,101147.89
2019-04-10T20:45:58.606Z,101150.77
2019-04-10T20:48:27.017Z,101155.65
2019-04-10T20:51:14.542Z,101156.03
2019-04-10T20:54:02.321Z,101157.52
2019-04-10T20:56:30.770Z,101161.91
2019-04-10T20:58:59.397Z,101166.92
2019-04-10T21:01:28.819Z,101169.51
2019-04-10T21:03:57.273Z,101166.99
2019-04-10T21:06:25.678Z,101178.62
2019-04-10T21:11:29.204Z,101179.14
2019-04-10T21:14:19.088Z,101181.30
2019-04-10T21:19:35.574Z,101187.48
2019-04-10T21:24:52.068Z,101189.65
2019-04-10T21:27:21.488Z,101189.92
2019-04-10T21:30:28.506Z,101194.36
2019-04-10T21:33:16.329Z,101190.63
2019-04-10T21:35:45.605Z,101190.77
2019-04-10T21:38:34.029Z,101192.17
2019-04-10T21:41:22.058Z,101193.69
2019-04-10T21:43:52.286Z,101197.25
2019-04-10T21:46:22.204Z,101201.04
2019-04-10T21:48:52.059Z,101200.45
2019-04-10T21:51:20.456Z,101200.36
2019-04-10T21:54:08.016Z,101206.24
2019-04-10T21:56:37.257Z,101210.96
2019-04-10T21:59:26.763Z,101206.22
2019-04-10T22:01:56.955Z,101203.69
2019-04-10T22:07:20.376Z,101207.20
2019-04-10T22:10:09.890Z,101207.86
2019-04-10T22:12:43.845Z,101204.97
2019-04-10T22:20:22.227Z,101205.42
2019-04-10T22:23:09.892Z,101214.23
2019-04-10T22:25:57.491Z,101211.59
2019-04-10T22:31:00.309Z,101216.83
2019-04-10T22:33:48.938Z,101217.14
2019-04-10T22:36:37.438Z,101219.09
2019-04-10T22:39:45.738Z,101217.97
2019-04-10T22:42:41.643Z,101224.03
2019-04-10T22:45:45.015Z,101222.38
2019-04-10T22:48:14.610Z,101220.98
2019-04-10T22:51:03.458Z,101225.88
2019-04-10T22:54:13.100Z,101224.97
2019-04-10T23:00:10.001Z,101236.11
2019-04-10T23:02:38.393Z,101234.33
2019-04-10T23:08:01.532Z,101234.03
2019-04-10T23:10:49.290Z,101234.94
2019-04-10T23:13:36.935Z,101235.56
2019-04-10T23:16:46.354Z,101232.37
2019-04-10T23:19:34.624Z,101227.84
2019-04-10T23:22:03.182Z,101233.34
2019-04-10T23:24:33.826Z,101236.86
2019-04-10T23:27:22.510Z,101231.98
2019-04-10T23:32:25.265Z,101240.79
2019-04-10T23:35:13.558Z,101239.92
2019-04-10T23:38:02.152Z,101241.23
2019-04-10T23:40:30.557Z,101241.55
2019-04-10T23:43:20.034Z,101243.53
2019-04-10T23:48:22.543Z,101246.61
2019-04-10T23:50:52.413Z,101244.10
2019-04-10T23:53:20.803Z,101247.09
2019-04-10T23:55:50.332Z,101251.66
2019-04-10T23:58:19.949Z,101246.61
